Time;durP1;ratioP1;P1;durP2;ratioP2;P2;SDS_P1;SDS_P2;PMS_P1;PMS_P2;Temp;Humidity;BMP_temperature;BMP_pressure;BME280_temperature;BME280_humidity;BME280_pressure;Samples;Min_cycle;Max_cycle;Signal;HPM_P1;HPM_P2
2022/07/22 06:32:52;;;;;;;19.05;10.60;;;;;;;20.53;64.63;96923.00;2093048;27;20559;-61
2022/07/22 06:33:56;;;;;;;17.10;9.95;;;;;;;20.66;64.24;96919.34;2089079;28;20189;-61
2022/07/22 06:34:58;;;;;;;14.18;9.88;;;;;;;20.85;63.41;96924.03;2092063;28;20203;-61
2022/07/22 06:36:00;;;;;;;12.45;8.90;;;;;;;20.96;63.38;96926.66;2097556;28;20698;-62
2022/07/22 06:37:02;;;;;;;14.40;8.75;;;;;;;21.16;62.74;96930.28;2094019;28;20238;-62
2022/07/22 06:38:03;;;;;;;11.93;8.40;;;;;;;21.34;62.33;96921.75;2084081;28;20764;-62
2022/07/22 06:39:07;;;;;;;15.15;9.13;;;;;;;21.26;62.45;96933.03;2078792;28;20288;-62
2022/07/22 06:40:09;;;;;;;15.23;9.05;;;;;;;21.30;62.11;96931.78;2078658;28;20279;-61
2022/07/22 06:41:13;;;;;;;12.88;8.15;;;;;;;21.44;61.24;96922.66;2079977;28;20828;-62
2022/07/22 06:42:15;;;;;;;16.73;9.75;;;;;;;20.83;62.73;96925.97;2082920;28;20230;-62
2022/07/22 06:43:16;;;;;;;13.32;9.43;;;;;;;20.84;63.04;96919.69;2085299;28;20255;-62
2022/07/22 06:44:18;;;;;;;14.55;10.43;;;;;;;20.72;63.19;96921.53;2084117;28;20668;-62
2022/07/22 07:18:49;;;;;;;17.38;9.05;;;;;;;22.56;57.63;96897.16;2107067;27;20579;-62
2022/07/22 07:19:50;;;;;;;16.58;8.43;;;;;;;22.38;58.03;96889.84;2105378;28;20829;-64
2022/07/22 07:20:52;;;;;;;14.52;8.05;;;;;;;22.66;57.28;96885.56;2103401;28;20229;-64
2022/07/22 07:21:53;;;;;;;19.75;9.05;;;;;;;22.82;56.93;96885.00;2103390;27;20195;-65
2022/07/22 07:22:55;;;;;;;19.95;9.73;;;;;;;22.95;56.24;96883.88;2099810;28;20848;-64
2022/07/22 07:23:57;;;;;;;15.25;10.00;;;;;;;23.10;56.36;96892.31;2098507;28;20721;-64
2022/07/22 07:25:03;;;;;;;12.85;7.80;;;;;;;23.29;55.95;96884.31;2097204;28;20191;-64
2022/07/22 07:26:22;;;;;;;16.55;8.77;;;;;;;23.46;55.35;96887.22;2098076;28;20195;-64
2022/07/22 07:27:24;;;;;;;15.57;9.00;;;;;;;23.26;55.10;96886.41;2097435;28;20223;-64
2022/07/22 07:28:26;;;;;;;17.40;8.05;;;;;;;23.30;54.90;96880.66;2096171;28;20199;-64
2022/07/22 07:29:27;;;;;;;24.98;8.10;;;;;;;23.46;55.20;96888.09;2100778;28;20775;-65
2022/07/22 07:30:29;;;;;;;15.82;9.57;;;;;;;23.09;56.00;96891.44;2099872;28;20587;-65
2022/07/22 07:31:30;;;;;;;18.48;8.05;;;;;;;23.33;54.94;96879.53;2095637;28;20249;-64
2022/07/22 07:32:32;;;;;;;13.20;8.80;;;;;;;23.02;55.57;96885.03;2083580;28;20724;-64
2022/07/22 07:33:34;;;;;;;12.98;8.00;;;;;;;23.23;55.30;96884.03;2093430;28;20214;-64
2022/07/22 08:04:43;;;;;;;20.13;8.40;;;;;;;23.18;54.80;96884.47;2083545;28;20553;-62
2022/07/22 08:05:51;;;;;;;12.80;7.88;;;;;;;23.75;53.68;96883.66;2078419;28;20655;-63
2022/07/22 08:06:53;;;;;;;14.00;8.40;;;;;;;23.72;53.98;96879.44;2076886;28;20193;-63
2022/07/22 08:07:55;;;;;;;19.85;9.73;;;;;;;23.31;53.82;96877.03;2070158;28;20547;-63
2022/07/22 08:08:56;;;;;;;14.85;8.70;;;;;;;22.96;55.04;96875.75;2070643;28;20189;-63
2022/07/22 08:09:59;;;;;;;14.90;7.93;;;;;;;23.63;54.16;96875.81;2070665;28;20649;-62
2022/07/22 08:11:20;;;;;;;16.20;9.00;;;;;;;23.95;52.78;96871.94;2070634;28;20237;-63
2022/07/22 08:12:22;;;;;;;12.57;7.00;;;;;;;24.52;51.13;96876.28;2070089;28;20217;-63
2022/07/22 08:13:23;;;;;;;23.63;7.53;;;;;;;24.55;51.03;96872.47;2070414;28;20202;-63
2022/07/22 08:14:26;;;;;;;20.58;7.85;;;;;;;24.44;51.50;96874.38;2070527;28;20198;-63
2022/07/22 08:15:29;;;;;;;15.57;7.55;;;;;;;24.74;50.72;96880.38;2070486;28;20581;-63
2022/07/22 08:16:30;;;;;;;19.10;9.40;;;;;;;23.85;53.10;96873.78;2070600;28;20422;-63
2022/07/22 08:17:33;;;;;;;18.85;8.48;;;;;;;24.23;52.64;96881.78;2070154;28;20221;-63
2022/07/22 08:18:36;;;;;;;16.25;6.75;;;;;;;24.67;51.51;96873.13;2070445;28;20206;-62
2022/07/22 08:19:38;;;;;;;22.23;8.93;;;;;;;25.08;50.44;96877.00;2070569;28;20746;-63
2022/07/22 08:20:40;;;;;;;15.57;8.30;;;;;;;24.80;50.72;96872.72;2070382;28;20249;-63
2022/07/22 08:21:42;;;;;;;23.55;8.73;;;;;;;25.23;50.22;96871.94;2070236;28;20194;-63
2022/07/22 08:22:44;;;;;;;13.80;8.00;;;;;;;25.54;49.23;96868.84;2069836;28;20189;-63
2022/07/22 08:23:45;;;;;;;10.68;7.28;;;;;;;25.89;48.76;96876.88;2070627;28;20194;-63
2022/07/22 08:24:47;;;;;;;23.38;8.65;;;;;;;25.55;48.16;96867.84;2070442;28;20665;-63
2022/07/22 08:25:49;;;;;;;19.15;7.45;;;;;;;25.91;47.64;96866.88;2070433;28;20255;-63
2022/07/22 08:57:25;;;;;;;12.00;5.45;;;;;;;25.29;48.74;96837.59;2082471;28;20572;-63
2022/07/22 08:58:27;;;;;;;42.30;7.55;;;;;;;25.99;47.38;96847.34;2081975;28;20196;-63
2022/07/22 08:59:31;;;;;;;12.20;6.07;;;;;;;26.36;46.58;96838.13;2081127;28;20346;-63
2022/07/22 09:00:33;;;;;;;11.65;6.88;;;;;;;26.65;45.67;96839.56;2082585;28;20258;-63
2022/07/22 09:01:34;;;;;;;13.10;6.32;;;;;;;26.96;45.56;96844.31;2081358;28;20198;-63
2022/07/22 09:02:38;;;;;;;27.30;5.13;;;;;;;26.68;44.58;96847.28;2079060;28;20217;-63
2022/07/22 09:03:58;;;;;;;16.45;6.28;;;;;;;27.01;45.43;96855.38;2079879;28;20268;-63
2022/07/22 09:05:03;;;;;;;12.93;6.63;;;;;;;27.42;44.11;96854.53;2079896;28;20205;-63
2022/07/22 09:06:32;;;;;;;14.27;5.38;;;;;;;27.70;44.03;96850.44;2082055;28;20743;-63
2022/07/22 09:07:37;;;;;;;9.07;5.80;;;;;;;27.98;43.33;96851.88;2081493;28;20700;-63
2022/07/22 09:08:56;;;;;;;20.63;7.00;;;;;;;27.60;43.14;96849.78;2082454;28;20193;-63
2022/07/22 09:09:59;;;;;;;12.20;6.90;;;;;;;27.42;44.00;96851.84;2078103;28;20205;-63
2022/07/22 09:11:15;;;;;;;20.65;6.70;;;;;;;27.79;43.44;96845.88;2077590;28;20228;-63
2022/07/22 09:12:17;;;;;;;9.70;5.97;;;;;;;27.99;42.78;96827.53;2081131;28;20216;-63
2022/07/22 09:13:18;;;;;;;8.68;5.38;;;;;;;28.17;42.32;96847.97;2084901;28;20201;-63
2022/07/22 09:14:20;;;;;;;8.52;5.60;;;;;;;28.50;41.67;96837.88;2084135;28;20289;-63
2022/07/22 09:15:33;;;;;;;18.65;5.20;;;;;;;27.54;42.27;96840.59;2081902;28;20205;-63
2022/07/22 09:16:48;;;;;;;13.45;6.35;;;;;;;27.35;43.27;96839.09;2080601;28;20274;-65
2022/07/22 09:17:51;;;;;;;27.17;6.90;;;;;;;26.46;45.01;96825.47;2081333;28;20212;-65
2022/07/22 09:18:54;;;;;;;17.02;6.70;;;;;;;26.32;45.88;96834.13;2081657;28;20205;-65
2022/07/22 09:19:57;;;;;;;14.32;6.00;;;;;;;26.33;46.23;96836.63;2079114;28;20227;-65
2022/07/22 09:20:59;;;;;;;18.00;6.72;;;;;;;25.59;46.90;96837.13;2078501;28;20196;-65
2022/07/22 09:22:02;;;;;;;9.50;5.72;;;;;;;25.63;47.12;96836.84;2081889;28;20201;-65
2022/07/22 09:23:12;;;;;;;9.35;5.63;;;;;;;26.19;46.16;96834.59;2079382;28;20204;-64
2022/07/22 09:24:31;;;;;;;9.85;5.68;;;;;;;26.50;45.76;96824.13;2079367;28;20208;-65
2022/07/22 09:25:35;;;;;;;13.63;5.95;;;;;;;27.23;44.40;96832.41;2081562;28;20656;-65
2022/07/22 09:26:38;;;;;;;9.88;5.47;;;;;;;27.84;43.46;96838.16;2082419;28;20197;-65
2022/07/22 09:56:48;;;;;;;19.23;6.95;;;;;;;27.61;41.95;96821.16;2098933;27;20556;-65
2022/07/22 09:57:51;;;;;;;10.70;6.15;;;;;;;27.79;41.54;96818.22;2086510;28;20212;-65
2022/07/22 09:58:52;;;;;;;12.45;6.85;;;;;;;27.61;41.52;96816.59;2086779;28;20200;-65
2022/07/22 09:59:54;;;;;;;9.93;6.10;;;;;;;27.50;42.05;96808.94;2086267;28;20287;-65
2022/07/22 10:00:59;;;;;;;15.60;5.30;;;;;;;27.76;40.99;96797.97;2085525;28;20197;-65
2022/07/22 10:02:03;;;;;;;6.28;4.72;;;;;;;27.93;41.35;96806.75;2083881;28;20223;-65
2022/07/22 10:03:07;;;;;;;10.27;5.75;;;;;;;27.57;41.34;96785.78;2085444;28;20196;-65
2022/07/22 10:04:10;;;;;;;7.57;4.95;;;;;;;27.51;40.69;96808.75;2086062;28;20196;-65
2022/07/22 10:05:13;;;;;;;9.15;5.25;;;;;;;27.74;40.17;96802.66;2085051;28;20660;-65
2022/07/22 10:06:15;;;;;;;10.68;5.13;;;;;;;27.83;40.13;96792.72;2085215;28;20648;-65
2022/07/22 10:07:17;;;;;;;8.73;5.05;;;;;;;27.65;40.72;96790.28;2084547;28;20224;-65
2022/07/22 10:08:19;;;;;;;10.52;5.05;;;;;;;27.79;40.92;96800.28;2085837;28;20201;-65
2022/07/22 10:09:21;;;;;;;8.85;6.18;;;;;;;27.49;41.70;96797.38;2086505;28;20192;-65
2022/07/22 10:10:25;;;;;;;18.30;8.90;;;;;;;27.64;42.81;96796.66;2085656;28;20196;-65
2022/07/22 10:11:27;;;;;;;17.55;6.95;;;;;;;27.92;42.33;96793.53;2086352;28;20230;-65
2022/07/22 10:12:30;;;;;;;14.02;8.13;;;;;;;27.56;42.45;96794.00;2085672;28;20220;-65
2022/07/22 10:13:34;;;;;;;19.90;8.95;;;;;;;28.22;41.47;96791.09;2084095;28;20192;-65
2022/07/22 10:14:37;;;;;;;13.48;7.38;;;;;;;28.88;41.37;96788.78;2085541;28;20212;-65
2022/07/22 10:15:38;;;;;;;14.50;6.50;;;;;;;28.69;40.75;96791.97;2085143;28;20227;-65
2022/07/22 10:16:40;;;;;;;18.73;7.20;;;;;;;28.39;41.65;96791.81;2086023;28;20212;-65
2022/07/22 10:17:48;;;;;;;15.70;7.68;;;;;;;28.69;40.51;96792.81;2092126;28;20211;-65
2022/07/22 10:18:49;;;;;;;14.25;8.32;;;;;;;27.99;41.66;96789.97;2090400;28;20198;-65
2022/07/22 10:19:51;;;;;;;14.73;7.50;;;;;;;28.81;40.75;96787.84;2084071;28;20195;-65
2022/07/22 10:21:10;;;;;;;12.40;7.05;;;;;;;29.84;39.27;96782.81;2085494;28;20193;-65
2022/07/22 10:22:39;;;;;;;10.07;6.20;;;;;;;30.22;37.26;96789.91;2093419;28;20227;-65
2022/07/22 10:24:13;;;;;;;17.23;9.00;;;;;;;29.08;39.41;96780.25;2093572;28;20196;-65
2022/07/22 10:25:15;;;;;;;9.88;6.40;;;;;;;29.39;38.81;96774.72;2090649;28;20192;-65
2022/07/22 10:26:17;;;;;;;12.60;7.70;;;;;;;29.62;38.36;96771.97;2093880;28;20204;-65
2022/07/22 10:27:56;;;;;;;11.75;6.15;;;;;;;29.94;38.20;96769.06;2094459;28;20219;-65
2022/07/22 10:29:28;;;;;;;12.35;7.28;;;;;;;27.17;41.94;96790.19;2092218;28;20198;-66
2022/07/22 10:30:35;;;;;;;8.27;6.65;;;;;;;28.01;40.58;96779.06;2094273;28;20530;-65
2022/07/22 10:31:36;;;;;;;10.48;6.50;;;;;;;28.32;40.02;96768.34;2092627;28;20199;-65
2022/07/22 10:32:38;;;;;;;9.90;6.68;;;;;;;28.86;39.67;96769.31;2094318;28;20224;-67
2022/07/22 10:33:40;;;;;;;9.27;7.10;;;;;;;29.42;37.93;96768.16;2087934;28;20234;-65
2022/07/22 10:35:03;;;;;;;17.08;7.45;;;;;;;29.39;38.50;96769.34;2093008;28;20199;-65
2022/07/22 10:36:05;;;;;;;11.35;7.10;;;;;;;29.88;37.83;96761.75;2084794;28;20231;-65
2022/07/22 10:37:38;;;;;;;12.85;7.68;;;;;;;29.22;38.58;96762.47;2092114;28;20228;-65
2022/07/22 10:39:02;;;;;;;11.23;6.47;;;;;;;29.88;38.55;96764.44;2093028;28;20289;-65
2022/07/22 10:40:09;;;;;;;9.93;6.80;;;;;;;30.45;36.40;96762.84;2093028;28;20196;-65
2022/07/22 10:41:33;;;;;;;11.65;6.70;;;;;;;30.44;36.64;96770.06;2091828;28;20200;-63
2022/07/22 10:42:56;;;;;;;16.73;6.77;;;;;;;30.44;36.11;96770.06;2092752;28;20220;-64
2022/07/22 10:43:58;;;;;;;12.48;6.53;;;;;;;29.44;38.62;96774.19;2093863;28;20420;-64
2022/07/22 10:45:01;;;;;;;13.43;7.53;;;;;;;28.84;39.08;96774.88;2101467;28;20195;-65
2022/07/22 10:46:05;;;;;;;11.67;6.30;;;;;;;29.25;38.76;96772.84;2092972;28;20203;-64
2022/07/22 10:47:06;;;;;;;16.57;6.40;;;;;;;29.92;37.61;96771.13;2089812;28;20806;-64
2022/07/22 10:48:19;;;;;;;12.13;7.83;;;;;;;30.43;36.40;96762.19;2086974;28;20431;-64
2022/07/22 10:49:24;;;;;;;11.50;7.70;;;;;;;29.90;36.79;96757.03;2096350;28;21126;-64
2022/07/22 10:50:54;;;;;;;14.20;6.13;;;;;;;30.13;36.83;96755.03;2093353;28;20747;-65
2022/07/22 10:52:08;;;;;;;10.00;7.30;;;;;;;30.40;35.94;96760.69;2091208;28;20440;-65
2022/07/22 11:23:57;;;;;;;8.52;5.90;;;;;;;29.95;35.90;96735.75;2090889;27;20564;-65
2022/07/22 11:25:01;;;;;;;11.98;6.30;;;;;;;28.76;37.94;96737.34;2086931;28;20201;-65
2022/07/22 11:26:03;;;;;;;12.35;7.00;;;;;;;28.36;39.30;96733.94;2085944;28;20668;-65
2022/07/22 11:27:13;;;;;;;19.30;6.40;;;;;;;29.64;37.07;96728.75;2079935;28;20233;-65
2022/07/22 11:28:14;;;;;;;17.58;6.45;;;;;;;30.52;35.75;96730.59;2068984;28;20244;-65
2022/07/22 11:29:29;;;;;;;11.20;6.30;;;;;;;31.27;34.43;96737.25;2070818;28;20798;-65
2022/07/22 11:30:31;;;;;;;14.95;6.65;;;;;;;30.92;35.48;96736.34;2070167;28;20232;-65
2022/07/22 11:31:32;;;;;;;25.27;17.83;;;;;;;31.41;34.01;96723.81;2061880;28;20230;-66
2022/07/22 11:32:42;;;;;;;12.48;7.13;;;;;;;31.17;34.08;96730.53;2061262;28;20467;-67
2022/07/22 11:33:46;;;;;;;10.33;5.70;;;;;;;31.15;34.33;96727.19;2069960;28;20281;-65
2022/07/22 11:34:48;;;;;;;14.20;6.80;;;;;;;31.60;33.29;96697.97;2070506;28;20431;-65
2022/07/22 11:36:09;;;;;;;11.60;6.40;;;;;;;30.55;35.64;96714.03;2070356;28;20451;-65
2022/07/22 11:37:12;;;;;;;8.97;6.40;;;;;;;30.61;35.30;96713.25;2068907;28;20745;-65
2022/07/22 11:38:14;;;;;;;14.70;6.63;;;;;;;30.72;35.01;96712.75;2070596;28;20423;-65
2022/07/22 11:39:21;;;;;;;10.37;5.90;;;;;;;30.82;34.36;96712.41;2070479;28;20438;-65
2022/07/22 11:40:23;;;;;;;10.67;5.70;;;;;;;30.72;34.41;96706.53;2070099;28;20424;-65
2022/07/22 11:41:24;;;;;;;9.90;5.17;;;;;;;30.83;33.60;96697.06;2069550;28;20431;-65
2022/07/22 11:42:26;;;;;;;14.17;5.13;;;;;;;30.15;34.04;96702.88;2070040;28;20459;-65
2022/07/22 11:43:37;;;;;;;9.33;4.80;;;;;;;30.45;31.79;96701.69;2070532;28;20470;-65
2022/07/22 11:44:39;;;;;;;9.33;4.73;;;;;;;30.44;31.81;96689.25;2061602;28;20432;-65
2022/07/22 11:45:57;;;;;;;6.23;4.63;;;;;;;30.59;32.33;96700.00;2061762;28;20472;-65
2022/07/22 11:46:59;;;;;;;9.93;4.40;;;;;;;30.13;31.96;96695.81;2069633;28;20423;-65
2022/07/22 11:48:19;;;;;;;7.53;5.00;;;;;;;30.41;31.77;96692.34;2061798;28;20820;-66
2022/07/22 11:49:21;;;;;;;9.10;5.00;;;;;;;30.57;31.63;96690.44;2063807;28;20428;-65
2022/07/22 11:50:31;;;;;;;9.27;5.20;;;;;;;31.14;30.52;96687.78;2070447;28;21103;-65
2022/07/22 11:51:34;;;;;;;9.17;4.43;;;;;;;31.66;30.00;96691.81;2070252;28;20431;-65
2022/07/22 11:52:35;;;;;;;7.67;5.03;;;;;;;31.81;30.68;96682.72;2069532;28;20459;-65
2022/07/22 11:53:39;;;;;;;7.50;4.70;;;;;;;31.78;30.29;96683.97;2070490;28;20833;-65
2022/07/22 11:54:43;;;;;;;16.57;4.83;;;;;;;31.65;30.46;96681.22;2069564;28;20434;-65
2022/07/22 11:55:47;;;;;;;6.70;5.23;;;;;;;31.74;30.61;96680.84;2076303;28;20457;-65
2022/07/22 11:56:48;;;;;;;9.30;5.27;;;;;;;31.26;32.57;96678.94;2077009;28;20423;-65
2022/07/22 11:57:57;;;;;;;9.50;5.10;;;;;;;31.04;32.67;96672.75;2070276;28;20428;-65
2022/07/22 11:59:02;;;;;;;5.80;4.83;;;;;;;30.32;33.85;96677.34;2070366;28;20458;-64
2022/07/22 12:00:07;;;;;;;10.73;4.83;;;;;;;30.16;33.86;96670.34;2068242;28;20936;-65
2022/07/22 12:01:11;;;;;;;9.93;6.00;;;;;;;30.18;33.48;96676.38;2070249;28;20469;-65
2022/07/22 12:02:13;;;;;;;8.17;5.60;;;;;;;31.01;32.30;96675.84;2069669;28;20861;-65
2022/07/22 12:03:15;;;;;;;8.50;5.57;;;;;;;31.10;31.72;96671.16;2070262;28;20945;-65
2022/07/22 12:04:20;;;;;;;6.10;4.40;;;;;;;31.32;31.06;96681.88;2061609;28;20987;-65
2022/07/22 12:05:22;;;;;;;7.33;5.00;;;;;;;30.89;31.53;96669.34;2061141;28;21385;-65
2022/07/22 12:06:38;;;;;;;9.73;4.50;;;;;;;31.09;31.42;96673.00;2061510;28;20436;-65
2022/07/22 12:07:39;;;;;;;7.43;4.63;;;;;;;32.04;30.29;96667.00;2063363;28;20820;-65
2022/07/22 12:08:48;;;;;;;6.60;4.53;;;;;;;31.96;29.98;96640.22;2070339;28;20435;-63
2022/07/22 12:09:49;;;;;;;13.23;5.80;;;;;;;32.16;29.92;96667.22;2069979;28;20431;-64
2022/07/22 12:10:51;;;;;;;16.13;4.93;;;;;;;32.06;31.20;96664.94;2070156;28;20424;-64
2022/07/22 12:11:58;;;;;;;8.93;4.80;;;;;;;31.57;32.01;96663.31;2069903;28;20547;-64
2022/07/22 12:12:59;;;;;;;6.70;5.23;;;;;;;30.61;33.49;96654.84;2069219;28;20929;-64
2022/07/22 12:14:09;;;;;;;10.00;4.57;;;;;;;31.80;32.18;96657.59;2070208;28;20773;-64
2022/07/22 12:15:17;;;;;;;8.27;5.00;;;;;;;32.37;30.84;96671.66;2069510;28;20431;-64
2022/07/22 12:16:39;;;;;;;10.87;5.80;;;;;;;31.94;31.98;96669.28;2069264;28;21112;-64
2022/07/22 12:17:41;;;;;;;12.20;5.77;;;;;;;30.41;33.47;96661.88;2069294;28;20454;-64
2022/07/22 12:18:42;;;;;;;7.97;4.87;;;;;;;30.17;34.33;96668.50;2070187;28;20423;-63
2022/07/22 12:19:44;;;;;;;9.67;4.90;;;;;;;30.88;33.05;96657.72;2070249;28;20423;-65
2022/07/22 12:20:47;;;;;;;10.10;4.53;;;;;;;31.25;32.08;96662.97;2069955;28;20438;-66
2022/07/22 12:22:04;;;;;;;6.17;4.90;;;;;;;30.91;32.79;96651.13;2069252;28;20431;-66
2022/07/22 12:23:06;;;;;;;7.20;4.70;;;;;;;32.10;31.10;96659.97;2068867;28;20966;-65
2022/07/22 12:24:10;;;;;;;5.80;4.77;;;;;;;33.02;29.64;96654.81;2070011;28;20455;-65
2022/07/22 12:25:11;;;;;;;12.43;5.60;;;;;;;32.92;30.09;96659.81;2069995;28;20477;-63
2022/07/22 12:26:13;;;;;;;8.10;6.10;;;;;;;31.54;32.41;96653.75;2070168;28;20439;-63
2022/07/22 12:27:17;;;;;;;10.20;7.70;;;;;;;30.85;33.73;96655.41;2069678;28;20462;-64
2022/07/22 12:28:19;;;;;;;25.80;10.73;;;;;;;31.78;32.08;96653.44;2070096;28;20431;-64
2022/07/22 12:29:42;;;;;;;12.50;5.43;;;;;;;31.39;32.25;96659.28;2069617;28;20459;-65
2022/07/22 12:30:43;;;;;;;8.87;5.90;;;;;;;31.36;32.61;96653.47;2070007;28;20962;-64
2022/07/22 12:31:47;;;;;;;10.87;5.10;;;;;;;32.24;31.56;96661.69;2068280;28;20443;-62
2022/07/22 12:32:49;;;;;;;8.10;5.20;;;;;;;33.36;29.72;96649.38;2061512;28;20431;-64
2022/07/22 12:33:53;;;;;;;8.20;5.30;;;;;;;34.01;29.31;96654.69;2061839;28;20846;-64
2022/07/22 12:35:06;;;;;;;6.60;5.23;;;;;;;33.50;28.43;96650.97;2058409;28;20429;-64
2022/07/22 12:36:07;;;;;;;11.27;4.63;;;;;;;33.98;27.72;96644.31;2056517;28;20436;-63
2022/07/22 12:37:28;;;;;;;11.43;4.73;;;;;;;34.56;26.74;96653.28;2055803;28;20550;-64
2022/07/22 12:38:33;;;;;;;8.13;5.20;;;;;;;34.31;26.40;96651.38;2056343;28;20428;-64
2022/07/22 12:39:36;;;;;;;9.77;5.13;;;;;;;33.36;27.88;96646.66;2056198;28;20494;-64
2022/07/22 12:40:38;;;;;;;8.03;4.20;;;;;;;32.82;28.55;96641.31;2063786;28;20994;-64
2022/07/22 12:41:53;;;;;;;5.50;4.50;;;;;;;34.06;27.95;96645.09;2063747;28;20432;-63
2022/07/22 13:14:20;;;;;;;12.40;4.37;;;;;;;32.85;27.95;96611.19;2083995;28;20561;-64
2022/07/22 13:15:22;;;;;;;11.60;5.27;;;;;;;32.91;28.28;96611.38;2076379;28;20419;-63
2022/07/22 13:16:24;;;;;;;10.23;4.60;;;;;;;33.14;27.65;96613.59;2075801;28;20795;-64
2022/07/22 13:17:25;;;;;;;4.70;3.80;;;;;;;33.41;27.27;96616.25;2074116;28;20528;-63
2022/07/22 13:18:27;;;;;;;11.13;4.47;;;;;;;33.38;26.88;96606.69;2077363;28;20477;-63
2022/07/22 13:19:29;;;;;;;8.27;4.43;;;;;;;32.87;27.69;96617.22;2078073;28;20423;-63
2022/07/22 13:20:30;;;;;;;6.33;3.90;;;;;;;32.84;28.00;96617.63;2084745;28;20979;-64
2022/07/22 13:21:32;;;;;;;5.93;4.43;;;;;;;32.87;27.72;96613.69;2083777;28;20429;-63
2022/07/22 13:22:34;;;;;;;5.63;4.43;;;;;;;31.81;28.70;96613.41;2077101;28;20458;-66
2022/07/22 13:23:35;;;;;;;7.60;4.53;;;;;;;33.01;27.87;96601.81;2077477;28;20439;-65
2022/07/22 13:24:37;;;;;;;7.87;4.20;;;;;;;33.24;27.24;96608.56;2076033;28;20897;-66
2022/07/22 13:25:38;;;;;;;8.70;4.10;;;;;;;33.39;27.05;96608.34;2075727;28;20797;-64
2022/07/22 13:26:40;;;;;;;12.40;4.33;;;;;;;32.84;27.96;96595.19;2077810;28;20422;-63
2022/07/22 13:27:42;;;;;;;4.63;3.90;;;;;;;31.64;29.71;96601.31;2073603;28;20492;-64
2022/07/22 13:28:43;;;;;;;6.03;4.33;;;;;;;32.19;28.92;96609.34;2075666;28;20430;-63
2022/07/22 13:29:45;;;;;;;10.20;4.50;;;;;;;32.29;28.78;96600.81;2069019;28;20427;-64
2022/07/22 13:30:47;;;;;;;22.53;5.20;;;;;;;32.85;28.61;96604.97;2069143;28;20435;-64
2022/07/22 13:31:49;;;;;;;24.23;4.53;;;;;;;33.14;28.19;96600.09;2076606;28;20434;-63
2022/07/22 13:33:12;;;;;;;22.93;4.37;;;;;;;34.74;26.45;96602.88;2077471;28;20472;-63
2022/07/22 13:34:13;;;;;;;12.90;4.30;;;;;;;35.29;25.50;96602.94;2077436;28;20474;-63
2022/07/22 13:35:15;;;;;;;14.83;4.83;;;;;;;34.86;25.57;96603.84;2075516;28;20437;-64
2022/07/22 13:36:18;;;;;;;18.57;5.20;;;;;;;34.25;26.29;96595.38;2073934;28;20442;-63
2022/07/22 13:37:20;;;;;;;9.50;3.90;;;;;;;33.59;27.12;96586.59;2072735;28;20471;-63
2022/07/22 13:38:22;;;;;;;7.30;4.60;;;;;;;33.98;27.15;96594.72;2074867;28;20411;-64
2022/07/22 13:39:24;;;;;;;8.70;4.77;;;;;;;35.33;25.98;96591.66;2057940;28;20433;-63
2022/07/22 13:40:26;;;;;;;5.10;3.97;;;;;;;35.96;25.04;96591.25;2059410;28;20439;-63
2022/07/22 13:41:28;;;;;;;13.40;4.80;;;;;;;36.24;24.48;96576.19;2076590;28;20454;-64
2022/07/22 13:42:29;;;;;;;16.03;4.50;;;;;;;36.24;24.49;96597.94;2076648;28;20598;-63
2022/07/22 13:43:31;;;;;;;12.80;4.17;;;;;;;36.53;23.92;96587.25;2075961;28;20555;-66
2022/07/22 13:44:34;;;;;;;9.87;4.00;;;;;;;36.70;23.44;96589.25;2073385;28;20445;-63
2022/07/22 13:45:36;;;;;;;6.50;3.27;;;;;;;36.69;23.24;96584.88;2083613;28;20423;-65
2022/07/22 13:46:39;;;;;;;8.47;3.80;;;;;;;36.93;23.02;96581.09;2083087;28;20418;-64
2022/07/22 13:47:42;;;;;;;10.07;4.00;;;;;;;37.13;22.80;96590.78;2068398;28;20502;-64
2022/07/22 13:48:45;;;;;;;5.67;4.17;;;;;;;37.18;22.38;96584.59;2071769;28;20542;-64
2022/07/22 13:49:47;;;;;;;10.60;4.27;;;;;;;36.44;23.14;96586.78;2074607;28;20426;-65
2022/07/22 13:50:52;;;;;;;13.03;4.23;;;;;;;35.64;23.90;96585.19;2074647;28;20450;-66
2022/07/22 13:51:53;;;;;;;7.33;3.73;;;;;;;35.50;23.96;96576.41;2074614;28;21105;-65
2022/07/22 13:52:55;;;;;;;6.10;3.90;;;;;;;35.14;24.18;96578.09;2074986;28;20442;-65
2022/07/22 13:53:57;;;;;;;6.53;3.23;;;;;;;32.86;27.14;96577.72;2075983;28;20477;-64
2022/07/22 13:55:00;;;;;;;5.93;3.97;;;;;;;32.57;27.79;96568.19;2075262;28;20438;-65
2022/07/22 13:56:03;;;;;;;6.47;4.10;;;;;;;32.73;27.79;96575.00;2074192;28;20446;-65
2022/07/22 13:57:05;;;;;;;6.20;4.03;;;;;;;33.00;27.20;96573.09;2076139;28;20450;-64
2022/07/22 13:58:07;;;;;;;6.27;4.47;;;;;;;32.74;27.85;96568.59;2076893;28;20454;-64
2022/07/22 13:59:08;;;;;;;4.50;3.50;;;;;;;33.29;26.74;96564.69;2075968;28;20464;-64
2022/07/22 14:00:10;;;;;;;5.93;3.73;;;;;;;33.13;26.94;96569.50;2075074;28;20445;-65
2022/07/22 14:01:16;;;;;;;4.70;3.77;;;;;;;33.46;26.52;96565.88;2074633;28;20790;-65
2022/07/22 14:02:17;;;;;;;7.93;4.13;;;;;;;33.91;26.02;96559.56;2075405;28;20463;-65
2022/07/22 14:03:19;;;;;;;7.73;3.93;;;;;;;33.74;26.58;96564.66;2074905;28;20422;-65
2022/07/22 14:04:21;;;;;;;4.83;4.03;;;;;;;32.94;27.41;96559.59;2077380;28;20775;-64
2022/07/22 14:05:22;;;;;;;11.73;4.37;;;;;;;32.88;27.95;96566.69;2077469;28;20418;-64
2022/07/22 14:06:24;;;;;;;8.90;3.63;;;;;;;33.48;26.78;96557.53;2077415;28;20433;-65
2022/07/22 14:07:25;;;;;;;8.03;4.63;;;;;;;33.29;27.46;96565.50;2076597;28;21000;-65
2022/07/22 14:08:27;;;;;;;7.40;4.03;;;;;;;33.43;27.76;96560.88;2076933;28;20805;-64
2022/07/22 14:09:28;;;;;;;5.70;4.20;;;;;;;33.39;28.20;96566.94;2077224;28;20442;-65
2022/07/22 14:10:37;;;;;;;4.80;4.07;;;;;;;33.54;27.80;96565.59;2076334;28;20818;-64
2022/07/22 14:11:39;;;;;;;7.33;4.00;;;;;;;32.96;28.51;96558.31;2073117;28;20811;-65
2022/07/22 14:12:41;;;;;;;6.47;4.30;;;;;;;32.92;28.56;96564.38;2075248;28;20461;-64
2022/07/22 14:13:42;;;;;;;8.73;4.20;;;;;;;32.71;28.47;96558.19;2082256;28;20457;-65
2022/07/22 14:14:44;;;;;;;6.80;4.33;;;;;;;33.13;27.96;96549.75;2083431;28;20453;-65
2022/07/22 14:15:45;;;;;;;6.83;4.07;;;;;;;33.70;27.06;96563.44;2076393;28;20435;-64
2022/07/22 14:16:47;;;;;;;7.10;4.50;;;;;;;33.78;27.35;96563.19;2075924;28;20485;-66
2022/07/22 14:18:06;;;;;;;7.67;4.67;;;;;;;33.44;27.35;96559.81;2076792;28;20430;-66
2022/07/22 14:19:10;;;;;;;7.47;4.40;;;;;;;33.10;28.10;96552.88;2076088;28;20921;-66
2022/07/22 14:20:12;;;;;;;6.40;4.40;;;;;;;33.02;28.55;96560.19;2075483;28;20465;-66
2022/07/22 14:21:13;;;;;;;8.83;4.10;;;;;;;32.88;28.49;96569.38;2076422;28;20453;-65
2022/07/22 14:22:15;;;;;;;7.40;4.30;;;;;;;32.17;29.23;96568.16;2074002;28;20461;-65
2022/07/22 14:23:20;;;;;;;6.50;4.37;;;;;;;33.01;28.02;96569.34;2076182;28;20418;-64
2022/07/22 14:24:22;;;;;;;7.17;4.03;;;;;;;34.31;26.76;96569.25;2077032;28;20430;-65
2022/07/22 14:25:24;;;;;;;6.63;3.87;;;;;;;35.15;25.91;96568.91;2072334;28;20839;-65
2022/07/22 14:26:26;;;;;;;5.63;4.13;;;;;;;35.28;25.36;96571.44;2070927;28;20949;-65
2022/07/22 14:27:28;;;;;;;6.30;4.20;;;;;;;33.98;26.51;96567.63;2070509;28;20827;-64
2022/07/22 14:28:29;;;;;;;7.53;4.37;;;;;;;32.60;28.18;96566.94;2071751;28;20477;-64
2022/07/22 14:29:36;;;;;;;9.13;4.80;;;;;;;32.40;28.46;96560.50;2069632;28;20435;-65
2022/07/22 14:30:38;;;;;;;8.83;4.33;;;;;;;32.76;28.12;96555.69;2069232;28;20449;-65
2022/07/22 14:31:39;;;;;;;6.20;5.00;;;;;;;32.89;27.88;96555.66;2071061;28;20787;-66
2022/07/22 14:32:41;;;;;;;23.13;5.23;;;;;;;32.64;28.21;96560.88;2068529;28;20493;-66
2022/07/22 14:33:42;;;;;;;7.83;4.43;;;;;;;33.40;27.20;96544.25;2071382;28;20434;-66
2022/07/22 14:34:44;;;;;;;3.90;3.50;;;;;;;34.27;26.10;96549.94;2071614;28;20467;-66
2022/07/22 14:35:45;;;;;;;5.90;3.83;;;;;;;34.20;25.96;96551.88;2070386;28;20419;-66
2022/07/22 14:36:47;;;;;;;11.30;4.43;;;;;;;34.13;26.18;96545.66;2069527;28;20428;-66
2022/07/22 14:37:49;;;;;;;6.20;4.07;;;;;;;34.23;26.15;96550.59;2076834;28;20652;-66
2022/07/22 14:38:53;;;;;;;38.03;5.20;;;;;;;34.28;26.14;96548.03;2075142;28;21015;-65
2022/07/22 14:39:55;;;;;;;13.50;4.90;;;;;;;34.27;25.90;96551.78;2068264;28;20939;-66
2022/07/22 14:40:57;;;;;;;6.50;4.23;;;;;;;34.21;25.71;96542.69;2069248;28;20432;-66
2022/07/22 14:41:58;;;;;;;11.07;4.40;;;;;;;34.13;25.93;96541.09;2067721;28;20435;-68